createdAt,value
2018-11-06T00:00:28.371Z,21.27
2018-11-06T00:05:20.994Z,17.87
2018-11-06T00:10:13.594Z,20.43
2018-11-06T00:15:07.422Z,21.73
2018-11-06T00:20:00.040Z,22.00
2018-11-06T00:24:52.770Z,20.47
2018-11-06T00:29:45.478Z,20.47
2018-11-06T00:34:39.175Z,20.93
2018-11-06T00:39:32.687Z,20.70
2018-11-06T00:44:25.292Z,24.90
2018-11-06T00:49:18.163Z,23.40
2018-11-06T00:54:10.757Z,23.97
2018-11-06T00:59:03.381Z,22.23
2018-11-06T01:04:01.902Z,23.70
2018-11-06T01:08:54.528Z,25.63
2018-11-06T01:13:47.555Z,22.70
2018-11-06T01:18:40.181Z,25.07
2018-11-06T01:23:32.837Z,23.43
2018-11-06T01:28:25.456Z,24.83
2018-11-06T01:33:18.075Z,24.10
2018-11-06T01:38:10.675Z,23.10
2018-11-06T01:43:04.485Z,21.10
2018-11-06T01:47:57.090Z,25.13
2018-11-06T01:52:49.693Z,22.27
2018-11-06T01:57:42.330Z,22.13
2018-11-06T02:02:34.925Z,19.73
2018-11-06T02:07:27.533Z,25.27
2018-11-06T02:12:20.011Z,23.43
2018-11-06T02:17:12.566Z,22.20
2018-11-06T02:22:05.067Z,20.77
2018-11-06T02:26:57.798Z,23.63
2018-11-06T02:31:50.421Z,21.53
2018-11-06T02:36:43.034Z,25.57
2018-11-06T02:41:35.685Z,25.40
2018-11-06T02:46:28.314Z,22.67
2018-11-06T02:51:20.949Z,26.37
2018-11-06T02:56:13.586Z,26.23
2018-11-06T03:01:06.726Z,23.17
2018-11-06T03:05:59.364Z,21.60
2018-11-06T03:10:51.989Z,26.23
2018-11-06T03:15:44.604Z,25.07
2018-11-06T03:20:37.251Z,23.23
2018-11-06T03:25:29.890Z,23.73
2018-11-06T03:30:22.487Z,24.77
2018-11-06T03:35:15.326Z,25.23
2018-11-06T03:40:08.740Z,24.77
2018-11-06T03:45:01.424Z,26.70
2018-11-06T03:49:54.021Z,24.50
2018-11-06T03:54:46.633Z,24.43
2018-11-06T03:59:39.303Z,31.57
2018-11-06T04:04:31.913Z,23.47
2018-11-06T04:09:24.505Z,27.27
2018-11-06T04:14:17.134Z,25.57
2018-11-06T04:19:09.777Z,29.23
2018-11-06T04:24:02.901Z,26.57
2018-11-06T04:28:55.558Z,29.87
2018-11-06T04:33:48.317Z,28.57
2018-11-06T04:38:40.901Z,27.37
2018-11-06T04:43:33.591Z,31.83
2018-11-06T04:48:26.234Z,28.80
2018-11-06T04:53:19.901Z,27.57
2018-11-06T04:58:12.598Z,27.27
2018-11-06T05:03:05.313Z,29.40
2018-11-06T05:07:57.945Z,28.00
2018-11-06T05:12:51.056Z,26.03
2018-11-06T05:17:43.750Z,29.93
2018-11-06T05:22:36.498Z,29.23
2018-11-06T05:27:29.395Z,27.73
2018-11-06T05:32:22.051Z,27.93
2018-11-06T05:37:14.620Z,30.33
2018-11-06T05:42:07.184Z,29.30
2018-11-06T05:46:59.969Z,33.63
2018-11-06T05:51:52.642Z,31.63
2018-11-06T05:56:45.263Z,31.00
2018-11-06T06:01:38.430Z,30.73
2018-11-06T06:06:31.419Z,31.93
2018-11-06T06:11:24.490Z,30.83
2018-11-06T06:16:17.521Z,38.47
2018-11-06T06:21:10.522Z,31.93
2018-11-06T06:26:03.352Z,34.63
2018-11-06T06:30:56.373Z,37.03
2018-11-06T06:35:49.512Z,37.10
2018-11-06T06:40:42.277Z,33.03
2018-11-06T06:45:34.945Z,34.97
2018-11-06T06:50:27.816Z,35.47
2018-11-06T06:55:20.468Z,36.20
2018-11-06T07:00:14.878Z,37.07
2018-11-06T07:05:09.396Z,41.20
2018-11-06T07:10:02.158Z,36.23
2018-11-06T07:14:55.074Z,38.43
2018-11-06T07:19:47.838Z,44.30
2018-11-06T07:24:40.489Z,42.27
2018-11-06T07:29:33.209Z,40.53
2018-11-06T07:34:25.947Z,41.97
2018-11-06T07:39:18.756Z,48.67
2018-11-06T07:44:11.619Z,42.07
2018-11-06T07:49:04.811Z,49.23
2018-11-06T07:53:57.554Z,43.13
2018-11-06T07:58:50.244Z,44.17
2018-11-06T08:03:42.968Z,38.83
2018-11-06T08:08:35.592Z,40.17
2018-11-06T08:13:28.281Z,43.43
2018-11-06T08:18:20.990Z,41.53
2018-11-06T08:23:13.658Z,46.07
2018-11-06T08:28:06.292Z,35.63
2018-11-06T08:32:59.023Z,39.97
2018-11-06T08:42:56.865Z,44.30
2018-11-06T08:47:49.634Z,40.90
2018-11-06T08:52:42.483Z,35.40
2018-11-06T08:57:35.178Z,36.43
2018-11-06T09:02:27.913Z,41.77
2018-11-06T09:07:20.725Z,40.03
2018-11-06T09:12:13.514Z,41.10
2018-11-06T09:17:06.334Z,41.33
2018-11-06T09:21:59.080Z,37.50
2018-11-06T09:26:51.780Z,36.43
2018-11-06T09:31:44.596Z,41.10
2018-11-06T09:36:37.314Z,34.13
2018-11-06T09:41:30.500Z,33.50
2018-11-06T09:46:23.301Z,32.47
2018-11-06T09:51:15.888Z,33.87
2018-11-06T09:56:08.546Z,31.10
2018-11-06T10:01:01.285Z,37.13
2018-11-06T10:05:53.949Z,32.87
2018-11-06T10:10:46.662Z,31.83
2018-11-06T10:15:39.361Z,35.90
2018-11-06T10:20:32.066Z,36.67
2018-11-06T10:25:24.691Z,34.37
2018-11-06T10:30:18.609Z,39.53
2018-11-06T10:35:11.546Z,31.93
2018-11-06T10:40:09.870Z,33.07
2018-11-06T10:45:02.559Z,30.97
2018-11-06T10:49:55.145Z,29.73
2018-11-06T10:54:47.785Z,35.23
2018-11-06T10:59:40.506Z,34.03
2018-11-06T11:04:33.190Z,30.13
2018-11-06T11:09:25.821Z,30.30
2018-11-06T11:14:18.495Z,37.73
2018-11-06T11:19:11.963Z,31.40
2018-11-06T11:24:05.067Z,31.90
2018-11-06T11:28:57.693Z,31.40
2018-11-06T11:33:50.552Z,25.43
2018-11-06T11:38:43.207Z,28.53
2018-11-06T11:43:36.515Z,30.30
2018-11-06T11:48:29.287Z,29.80
2018-11-06T11:53:21.951Z,30.93
2018-11-06T11:58:15.018Z,29.30
2018-11-06T12:03:08.173Z,27.23
2018-11-06T12:08:00.981Z,26.27
2018-11-06T12:12:53.689Z,24.40
2018-11-06T12:17:46.844Z,32.53
2018-11-06T12:22:39.901Z,28.23
2018-11-06T12:27:32.549Z,28.37
2018-11-06T12:32:25.241Z,25.53
2018-11-06T12:37:17.971Z,36.70
2018-11-06T12:42:10.702Z,28.00
2018-11-06T12:47:03.355Z,30.20
2018-11-06T12:51:56.249Z,24.93
2018-11-06T12:56:48.993Z,27.30
2018-11-06T13:01:41.621Z,25.23
2018-11-06T13:06:34.320Z,32.80
2018-11-06T13:11:26.982Z,39.40
2018-11-06T13:16:19.733Z,32.43
2018-11-06T13:21:12.314Z,24.83
2018-11-06T13:26:05.271Z,23.10
2018-11-06T13:30:57.994Z,20.70
2018-11-06T13:35:50.846Z,29.43
2018-11-06T13:40:43.482Z,29.50
2018-11-06T13:45:36.304Z,25.50
2018-11-06T13:50:28.871Z,28.10
2018-11-06T13:55:22.090Z,28.47
2018-11-06T14:00:18.621Z,24.90
2018-11-06T14:05:11.812Z,23.13
2018-11-06T14:10:05.030Z,27.97
2018-11-06T14:14:57.797Z,23.33
2018-11-06T14:19:50.651Z,22.53
2018-11-06T14:24:43.447Z,26.97
2018-11-06T14:29:36.124Z,26.77
2018-11-06T14:34:28.895Z,29.47
2018-11-06T14:39:21.698Z,29.33
2018-11-06T14:44:14.301Z,26.57
2018-11-06T14:49:07.205Z,27.40
2018-11-06T14:53:59.911Z,27.27
2018-11-06T14:58:52.695Z,29.93
2018-11-06T15:03:45.453Z,31.03
2018-11-06T15:08:38.139Z,31.70
2018-11-06T15:13:30.786Z,27.20
2018-11-06T15:18:23.708Z,30.33
2018-11-06T15:23:16.362Z,27.90
2018-11-06T15:28:09.101Z,33.10
2018-11-06T15:33:01.772Z,27.70
2018-11-06T15:37:54.510Z,27.87
2018-11-06T15:42:47.289Z,28.03
2018-11-06T15:47:41.190Z,29.53
2018-11-06T15:52:33.909Z,36.83
2018-11-06T15:57:26.667Z,26.60
2018-11-06T16:02:19.274Z,32.13
2018-11-06T16:07:11.965Z,29.10
2018-11-06T16:12:04.689Z,29.20
2018-11-06T16:16:57.447Z,30.93
2018-11-06T16:21:50.145Z,30.63
2018-11-06T16:26:42.914Z,31.93
2018-11-06T16:31:35.517Z,34.60
2018-11-06T16:36:28.245Z,29.30
2018-11-06T16:41:20.979Z,34.20
2018-11-06T16:46:13.557Z,31.00
2018-11-06T16:51:06.511Z,33.50
2018-11-06T16:55:59.200Z,33.90
2018-11-06T17:00:52.036Z,30.27
2018-11-06T17:05:44.630Z,30.67
2018-11-06T17:10:37.412Z,36.23
2018-11-06T17:15:30.065Z,30.90
2018-11-06T17:20:23.057Z,34.50
2018-11-06T17:25:16.987Z,34.33
2018-11-06T17:30:11.934Z,33.30
2018-11-06T17:35:06.256Z,32.17
2018-11-06T17:39:58.870Z,37.10
2018-11-06T17:44:51.726Z,38.03
2018-11-06T17:49:44.373Z,36.77
2018-11-06T17:54:37.141Z,35.23
2018-11-06T17:59:29.921Z,30.87
2018-11-06T18:04:22.624Z,32.93
2018-11-06T18:09:15.181Z,34.20
2018-11-06T18:14:07.962Z,35.70
2018-11-06T18:19:00.605Z,34.67
2018-11-06T18:23:53.189Z,34.67
2018-11-06T18:28:45.796Z,37.73
2018-11-06T18:33:38.581Z,39.40
2018-11-06T18:38:31.263Z,36.37
2018-11-06T18:43:23.829Z,31.97
2018-11-06T18:48:16.432Z,33.60
2018-11-06T18:53:09.181Z,37.23
2018-11-06T18:58:02.010Z,31.67
2018-11-06T19:02:54.482Z,38.00
2018-11-06T19:07:47.160Z,34.60
2018-11-06T19:12:40.129Z,30.87
2018-11-06T19:17:32.773Z,32.47
2018-11-06T19:22:25.410Z,34.70
2018-11-06T19:27:18.078Z,34.27
2018-11-06T19:32:11.107Z,36.53
2018-11-06T19:37:04.095Z,34.23
2018-11-06T19:41:56.862Z,38.60
2018-11-06T19:46:49.579Z,35.13
2018-11-06T19:51:42.261Z,32.23
2018-11-06T19:56:34.920Z,34.23
2018-11-06T20:01:27.736Z,34.40
2018-11-06T20:06:20.672Z,37.87
2018-11-06T20:11:13.306Z,33.77
2018-11-06T20:16:05.950Z,33.17
2018-11-06T20:20:58.598Z,32.83
2018-11-06T20:25:51.274Z,36.10
2018-11-06T20:30:43.876Z,32.70
2018-11-06T20:35:36.524Z,35.67
2018-11-06T20:40:29.158Z,38.93
2018-11-06T20:45:22.252Z,37.80
2018-11-06T20:50:18.821Z,37.07
2018-11-06T20:55:12.687Z,36.77
2018-11-06T21:00:08.844Z,36.67
2018-11-06T21:05:01.500Z,38.63
2018-11-06T21:09:54.329Z,39.23
2018-11-06T21:14:47.164Z,36.93
2018-11-06T21:19:39.974Z,39.33
2018-11-06T21:24:32.613Z,38.17
2018-11-06T21:29:25.274Z,38.57
2018-11-06T21:34:18.042Z,37.03
2018-11-06T21:39:10.735Z,42.10
2018-11-06T21:44:03.446Z,41.73
2018-11-06T21:48:56.078Z,38.27
2018-11-06T21:53:48.750Z,35.47
2018-11-06T21:58:41.422Z,44.73
2018-11-06T22:03:33.991Z,42.13
2018-11-06T22:08:26.601Z,39.93
2018-11-06T22:13:19.257Z,42.60
2018-11-06T22:18:11.901Z,39.80
2018-11-06T22:23:04.698Z,42.37
2018-11-06T22:27:57.297Z,42.87
2018-11-06T22:32:49.965Z,42.73
2018-11-06T22:37:42.757Z,44.10
2018-11-06T22:42:35.361Z,43.17
2018-11-06T22:47:27.969Z,38.57
2018-11-06T22:52:20.572Z,38.60
2018-11-06T22:57:13.172Z,38.10
2018-11-06T23:02:05.820Z,38.30
2018-11-06T23:06:58.516Z,42.80
2018-11-06T23:11:51.084Z,38.23
2018-11-06T23:16:43.693Z,39.30
2018-11-06T23:21:36.355Z,42.53
2018-11-06T23:26:29.029Z,34.60
2018-11-06T23:31:21.698Z,38.17
2018-11-06T23:36:14.253Z,38.10
2018-11-06T23:41:06.968Z,36.10
2018-11-06T23:45:59.566Z,38.17
2018-11-06T23:50:52.186Z,35.47
2018-11-06T23:55:44.821Z,37.20
